sensor_id;sensor_type;location;lat;lon;timestamp;P1;durP1;ratioP1;P2;durP2;ratioP2
2305;SDS011;1161;51.922;8.896;2023-07-30T00:00:37;4.73;;;3.70;;
2305;SDS011;1161;51.922;8.896;2023-07-30T00:03:04;12.43;;;4.20;;
2305;SDS011;1161;51.922;8.896;2023-07-30T00:05:32;5.20;;;4.70;;
2305;SDS011;1161;51.922;8.896;2023-07-30T00:07:59;10.30;;;6.17;;
2305;SDS011;1161;51.922;8.896;2023-07-30T00:10:26;10.77;;;4.93;;
2305;SDS011;1161;51.922;8.896;2023-07-30T00:12:53;12.10;;;5.43;;
2305;SDS011;1161;51.922;8.896;2023-07-30T00:15:19;6.13;;;5.63;;
2305;SDS011;1161;51.922;8.896;2023-07-30T00:17:46;15.50;;;6.00;;
2305;SDS011;1161;51.922;8.896;2023-07-30T00:20:13;9.50;;;5.80;;
2305;SDS011;1161;51.922;8.896;2023-07-30T00:22:42;9.30;;;5.97;;
2305;SDS011;1161;51.922;8.896;2023-07-30T00:25:08;7.10;;;5.10;;
2305;SDS011;1161;51.922;8.896;2023-07-30T00:27:35;5.70;;;4.20;;
2305;SDS011;1161;51.922;8.896;2023-07-30T00:30:03;9.97;;;5.23;;
2305;SDS011;1161;51.922;8.896;2023-07-30T00:32:30;10.03;;;5.70;;
2305;SDS011;1161;51.922;8.896;2023-07-30T00:34:57;5.33;;;4.77;;
2305;SDS011;1161;51.922;8.896;2023-07-30T00:37:23;8.53;;;5.90;;
2305;SDS011;1161;51.922;8.896;2023-07-30T00:39:51;12.80;;;5.63;;
2305;SDS011;1161;51.922;8.896;2023-07-30T00:42:18;7.70;;;5.77;;
2305;SDS011;1161;51.922;8.896;2023-07-30T00:44:45;15.13;;;6.67;;
2305;SDS011;1161;51.922;8.896;2023-07-30T00:47:12;15.53;;;7.53;;
2305;SDS011;1161;51.922;8.896;2023-07-30T00:49:39;8.63;;;6.63;;
2305;SDS011;1161;51.922;8.896;2023-07-30T00:52:06;12.00;;;6.20;;
2305;SDS011;1161;51.922;8.896;2023-07-30T00:54:33;9.17;;;6.80;;
2305;SDS011;1161;51.922;8.896;2023-07-30T00:57:02;11.03;;;7.87;;
2305;SDS011;1161;51.922;8.896;2023-07-30T00:59:29;15.83;;;6.80;;
2305;SDS011;1161;51.922;8.896;2023-07-30T01:01:56;12.80;;;8.50;;
2305;SDS011;1161;51.922;8.896;2023-07-30T01:04:24;7.03;;;6.30;;
2305;SDS011;1161;51.922;8.896;2023-07-30T01:06:50;8.00;;;6.70;;
2305;SDS011;1161;51.922;8.896;2023-07-30T01:09:17;19.13;;;6.70;;
2305;SDS011;1161;51.922;8.896;2023-07-30T01:11:45;11.63;;;7.00;;
2305;SDS011;1161;51.922;8.896;2023-07-30T01:14:13;8.03;;;5.93;;
2305;SDS011;1161;51.922;8.896;2023-07-30T01:16:40;9.50;;;6.70;;
2305;SDS011;1161;51.922;8.896;2023-07-30T01:19:07;15.60;;;6.10;;
2305;SDS011;1161;51.922;8.896;2023-07-30T01:21:36;9.70;;;5.47;;
2305;SDS011;1161;51.922;8.896;2023-07-30T01:24:03;9.23;;;4.93;;
2305;SDS011;1161;51.922;8.896;2023-07-30T01:26:30;7.40;;;5.60;;
2305;SDS011;1161;51.922;8.896;2023-07-30T01:29:00;7.87;;;4.27;;
2305;SDS011;1161;51.922;8.896;2023-07-30T01:31:27;14.90;;;5.27;;
2305;SDS011;1161;51.922;8.896;2023-07-30T01:33:56;14.03;;;5.50;;
2305;SDS011;1161;51.922;8.896;2023-07-30T01:36:24;13.40;;;5.20;;
2305;SDS011;1161;51.922;8.896;2023-07-30T01:38:51;15.80;;;4.50;;
2305;SDS011;1161;51.922;8.896;2023-07-30T01:41:19;10.03;;;5.60;;
2305;SDS011;1161;51.922;8.896;2023-07-30T01:43:46;6.90;;;4.13;;
2305;SDS011;1161;51.922;8.896;2023-07-30T01:46:13;14.00;;;5.57;;
2305;SDS011;1161;51.922;8.896;2023-07-30T01:48:40;7.00;;;4.77;;
2305;SDS011;1161;51.922;8.896;2023-07-30T01:51:06;12.50;;;5.70;;
2305;SDS011;1161;51.922;8.896;2023-07-30T01:53:33;9.00;;;5.00;;
2305;SDS011;1161;51.922;8.896;2023-07-30T01:56:02;8.00;;;6.43;;
2305;SDS011;1161;51.922;8.896;2023-07-30T01:58:29;20.67;;;5.10;;
2305;SDS011;1161;51.922;8.896;2023-07-30T02:00:56;10.23;;;4.73;;
2305;SDS011;1161;51.922;8.896;2023-07-30T02:03:22;9.13;;;5.17;;
2305;SDS011;1161;51.922;8.896;2023-07-30T02:05:50;8.80;;;5.20;;
2305;SDS011;1161;51.922;8.896;2023-07-30T02:08:17;6.37;;;5.50;;
2305;SDS011;1161;51.922;8.896;2023-07-30T02:10:44;8.50;;;5.80;;
2305;SDS011;1161;51.922;8.896;2023-07-30T02:13:22;15.13;;;7.83;;
2305;SDS011;1161;51.922;8.896;2023-07-30T02:15:50;17.10;;;9.70;;
2305;SDS011;1161;51.922;8.896;2023-07-30T02:18:16;18.53;;;9.27;;
2305;SDS011;1161;51.922;8.896;2023-07-30T02:20:43;19.40;;;10.47;;
2305;SDS011;1161;51.922;8.896;2023-07-30T02:23:10;23.97;;;11.13;;
2305;SDS011;1161;51.922;8.896;2023-07-30T02:25:37;28.53;;;13.70;;
2305;SDS011;1161;51.922;8.896;2023-07-30T02:28:04;39.60;;;16.00;;
2305;SDS011;1161;51.922;8.896;2023-07-30T02:30:34;36.90;;;17.60;;
2305;SDS011;1161;51.922;8.896;2023-07-30T02:33:02;43.87;;;21.30;;
2305;SDS011;1161;51.922;8.896;2023-07-30T02:35:31;26.77;;;15.63;;
2305;SDS011;1161;51.922;8.896;2023-07-30T02:37:57;39.47;;;17.70;;
2305;SDS011;1161;51.922;8.896;2023-07-30T02:40:24;46.53;;;20.53;;
2305;SDS011;1161;51.922;8.896;2023-07-30T02:42:54;45.80;;;22.70;;
2305;SDS011;1161;51.922;8.896;2023-07-30T02:45:21;49.47;;;23.00;;
2305;SDS011;1161;51.922;8.896;2023-07-30T02:47:50;56.30;;;22.30;;
2305;SDS011;1161;51.922;8.896;2023-07-30T02:50:17;41.67;;;19.73;;
2305;SDS011;1161;51.922;8.896;2023-07-30T02:52:44;41.97;;;20.43;;
2305;SDS011;1161;51.922;8.896;2023-07-30T02:55:12;46.60;;;20.37;;
2305;SDS011;1161;51.922;8.896;2023-07-30T02:57:39;44.07;;;23.13;;
2305;SDS011;1161;51.922;8.896;2023-07-30T03:00:07;53.50;;;22.63;;
2305;SDS011;1161;51.922;8.896;2023-07-30T03:02:35;53.07;;;23.17;;
2305;SDS011;1161;51.922;8.896;2023-07-30T03:05:04;42.30;;;21.80;;
2305;SDS011;1161;51.922;8.896;2023-07-30T03:07:31;46.00;;;22.40;;
2305;SDS011;1161;51.922;8.896;2023-07-30T03:09:58;38.73;;;22.37;;
2305;SDS011;1161;51.922;8.896;2023-07-30T03:12:25;45.00;;;22.40;;
2305;SDS011;1161;51.922;8.896;2023-07-30T03:14:52;30.30;;;14.90;;
2305;SDS011;1161;51.922;8.896;2023-07-30T03:17:19;24.30;;;13.87;;
2305;SDS011;1161;51.922;8.896;2023-07-30T03:19:47;28.20;;;13.43;;
2305;SDS011;1161;51.922;8.896;2023-07-30T03:22:15;17.63;;;10.60;;
2305;SDS011;1161;51.922;8.896;2023-07-30T03:24:42;16.43;;;11.40;;
2305;SDS011;1161;51.922;8.896;2023-07-30T03:27:09;21.43;;;11.50;;
2305;SDS011;1161;51.922;8.896;2023-07-30T03:29:36;23.50;;;11.70;;
2305;SDS011;1161;51.922;8.896;2023-07-30T03:32:08;19.47;;;10.70;;
2305;SDS011;1161;51.922;8.896;2023-07-30T03:34:35;17.23;;;11.30;;
2305;SDS011;1161;51.922;8.896;2023-07-30T03:37:03;21.80;;;10.27;;
2305;SDS011;1161;51.922;8.896;2023-07-30T03:39:35;22.90;;;10.70;;
2305;SDS011;1161;51.922;8.896;2023-07-30T03:42:03;25.67;;;10.20;;
2305;SDS011;1161;51.922;8.896;2023-07-30T03:44:35;21.30;;;9.40;;
2305;SDS011;1161;51.922;8.896;2023-07-30T03:47:08;16.63;;;9.37;;
2305;SDS011;1161;51.922;8.896;2023-07-30T03:49:35;15.00;;;9.67;;
2305;SDS011;1161;51.922;8.896;2023-07-30T03:52:03;20.27;;;11.30;;
2305;SDS011;1161;51.922;8.896;2023-07-30T03:54:32;22.23;;;13.10;;
2305;SDS011;1161;51.922;8.896;2023-07-30T03:57:00;15.23;;;9.67;;
2305;SDS011;1161;51.922;8.896;2023-07-30T03:59:28;25.20;;;10.67;;
2305;SDS011;1161;51.922;8.896;2023-07-30T04:01:55;14.77;;;9.47;;
2305;SDS011;1161;51.922;8.896;2023-07-30T04:04:23;24.90;;;9.43;;
2305;SDS011;1161;51.922;8.896;2023-07-30T04:07:00;15.47;;;8.70;;
2305;SDS011;1161;51.922;8.896;2023-07-30T04:09:39;12.43;;;7.00;;
2305;SDS011;1161;51.922;8.896;2023-07-30T04:12:08;14.20;;;7.20;;
2305;SDS011;1161;51.922;8.896;2023-07-30T04:14:35;14.83;;;6.23;;
2305;SDS011;1161;51.922;8.896;2023-07-30T04:17:09;9.10;;;5.67;;
2305;SDS011;1161;51.922;8.896;2023-07-30T04:19:41;10.93;;;5.00;;
2305;SDS011;1161;51.922;8.896;2023-07-30T04:22:14;7.63;;;4.10;;
2305;SDS011;1161;51.922;8.896;2023-07-30T04:24:43;7.63;;;5.67;;
2305;SDS011;1161;51.922;8.896;2023-07-30T04:27:12;9.50;;;5.23;;
2305;SDS011;1161;51.922;8.896;2023-07-30T04:29:50;13.40;;;4.73;;
2305;SDS011;1161;51.922;8.896;2023-07-30T04:32:18;13.10;;;3.63;;
2305;SDS011;1161;51.922;8.896;2023-07-30T04:34:47;4.33;;;3.80;;
2305;SDS011;1161;51.922;8.896;2023-07-30T04:37:25;6.20;;;4.00;;
2305;SDS011;1161;51.922;8.896;2023-07-30T04:39:55;17.33;;;4.20;;
2305;SDS011;1161;51.922;8.896;2023-07-30T04:42:25;5.57;;;3.97;;
2305;SDS011;1161;51.922;8.896;2023-07-30T04:44:54;7.77;;;3.83;;
2305;SDS011;1161;51.922;8.896;2023-07-30T04:47:23;8.27;;;4.07;;
2305;SDS011;1161;51.922;8.896;2023-07-30T04:49:53;13.70;;;4.20;;
2305;SDS011;1161;51.922;8.896;2023-07-30T04:52:22;10.53;;;3.97;;
2305;SDS011;1161;51.922;8.896;2023-07-30T04:54:49;11.67;;;4.20;;
2305;SDS011;1161;51.922;8.896;2023-07-30T04:57:17;8.43;;;4.53;;
2305;SDS011;1161;51.922;8.896;2023-07-30T04:59:46;9.47;;;4.20;;
2305;SDS011;1161;51.922;8.896;2023-07-30T05:02:14;13.20;;;4.23;;
2305;SDS011;1161;51.922;8.896;2023-07-30T05:04:48;18.07;;;3.93;;
2305;SDS011;1161;51.922;8.896;2023-07-30T05:07:15;14.67;;;5.30;;
2305;SDS011;1161;51.922;8.896;2023-07-30T05:09:42;8.33;;;3.23;;
2305;SDS011;1161;51.922;8.896;2023-07-30T05:12:11;7.67;;;3.90;;
2305;SDS011;1161;51.922;8.896;2023-07-30T05:14:40;9.17;;;4.27;;
2305;SDS011;1161;51.922;8.896;2023-07-30T05:17:09;9.47;;;4.20;;
2305;SDS011;1161;51.922;8.896;2023-07-30T05:19:36;10.07;;;4.47;;
2305;SDS011;1161;51.922;8.896;2023-07-30T05:22:04;8.13;;;4.20;;
2305;SDS011;1161;51.922;8.896;2023-07-30T05:24:33;7.30;;;4.53;;
2305;SDS011;1161;51.922;8.896;2023-07-30T05:27:02;6.67;;;3.50;;
2305;SDS011;1161;51.922;8.896;2023-07-30T05:29:29;10.87;;;4.00;;
2305;SDS011;1161;51.922;8.896;2023-07-30T05:31:55;13.30;;;4.47;;
2305;SDS011;1161;51.922;8.896;2023-07-30T05:34:23;18.07;;;5.37;;
2305;SDS011;1161;51.922;8.896;2023-07-30T05:36:50;10.47;;;4.50;;
2305;SDS011;1161;51.922;8.896;2023-07-30T05:39:17;11.70;;;5.07;;
2305;SDS011;1161;51.922;8.896;2023-07-30T05:41:44;11.37;;;4.47;;
2305;SDS011;1161;51.922;8.896;2023-07-30T05:44:10;16.13;;;5.47;;
2305;SDS011;1161;51.922;8.896;2023-07-30T05:46:37;10.97;;;3.93;;
2305;SDS011;1161;51.922;8.896;2023-07-30T05:49:04;12.30;;;4.40;;
2305;SDS011;1161;51.922;8.896;2023-07-30T05:51:32;10.77;;;3.93;;
2305;SDS011;1161;51.922;8.896;2023-07-30T05:53:59;7.10;;;4.20;;
2305;SDS011;1161;51.922;8.896;2023-07-30T05:56:26;16.27;;;4.20;;
2305;SDS011;1161;51.922;8.896;2023-07-30T05:58:53;13.37;;;5.17;;
2305;SDS011;1161;51.922;8.896;2023-07-30T06:01:20;7.23;;;3.93;;
2305;SDS011;1161;51.922;8.896;2023-07-30T06:03:47;11.67;;;5.40;;
2305;SDS011;1161;51.922;8.896;2023-07-30T06:06:14;14.30;;;4.70;;
2305;SDS011;1161;51.922;8.896;2023-07-30T06:08:42;10.60;;;5.00;;
2305;SDS011;1161;51.922;8.896;2023-07-30T06:11:09;9.03;;;5.00;;
2305;SDS011;1161;51.922;8.896;2023-07-30T06:13:36;12.20;;;4.53;;
2305;SDS011;1161;51.922;8.896;2023-07-30T06:16:03;7.27;;;4.40;;
2305;SDS011;1161;51.922;8.896;2023-07-30T06:18:30;10.17;;;4.60;;
2305;SDS011;1161;51.922;8.896;2023-07-30T06:20:56;10.17;;;4.10;;
2305;SDS011;1161;51.922;8.896;2023-07-30T06:23:23;11.73;;;4.70;;
2305;SDS011;1161;51.922;8.896;2023-07-30T06:25:51;9.93;;;4.40;;
2305;SDS011;1161;51.922;8.896;2023-07-30T06:28:19;11.40;;;5.70;;
2305;SDS011;1161;51.922;8.896;2023-07-30T06:30:46;5.67;;;3.70;;
2305;SDS011;1161;51.922;8.896;2023-07-30T06:33:12;13.67;;;6.23;;
2305;SDS011;1161;51.922;8.896;2023-07-30T06:35:40;8.00;;;4.37;;
2305;SDS011;1161;51.922;8.896;2023-07-30T06:38:07;12.50;;;5.10;;
2305;SDS011;1161;51.922;8.896;2023-07-30T06:40:35;18.07;;;5.93;;
2305;SDS011;1161;51.922;8.896;2023-07-30T06:43:03;19.43;;;5.40;;
2305;SDS011;1161;51.922;8.896;2023-07-30T06:45:30;11.53;;;5.17;;
2305;SDS011;1161;51.922;8.896;2023-07-30T06:47:56;10.30;;;4.90;;
2305;SDS011;1161;51.922;8.896;2023-07-30T06:50:24;12.73;;;4.23;;
2305;SDS011;1161;51.922;8.896;2023-07-30T06:52:51;9.30;;;4.50;;
2305;SDS011;1161;51.922;8.896;2023-07-30T06:55:18;7.80;;;3.63;;
2305;SDS011;1161;51.922;8.896;2023-07-30T06:57:45;18.93;;;5.13;;
2305;SDS011;1161;51.922;8.896;2023-07-30T07:00:14;12.27;;;4.60;;
2305;SDS011;1161;51.922;8.896;2023-07-30T07:02:47;4.00;;;3.60;;
2305;SDS011;1161;51.922;8.896;2023-07-30T07:05:14;12.83;;;4.80;;
2305;SDS011;1161;51.922;8.896;2023-07-30T07:07:41;9.73;;;3.70;;
2305;SDS011;1161;51.922;8.896;2023-07-30T07:10:08;7.43;;;3.63;;
2305;SDS011;1161;51.922;8.896;2023-07-30T07:12:36;13.57;;;4.93;;
2305;SDS011;1161;51.922;8.896;2023-07-30T07:15:03;11.77;;;5.03;;
2305;SDS011;1161;51.922;8.896;2023-07-30T07:17:33;19.07;;;5.17;;
2305;SDS011;1161;51.922;8.896;2023-07-30T07:20:00;7.30;;;4.60;;
2305;SDS011;1161;51.922;8.896;2023-07-30T07:22:29;10.47;;;4.70;;
2305;SDS011;1161;51.922;8.896;2023-07-30T07:24:56;13.57;;;4.90;;
2305;SDS011;1161;51.922;8.896;2023-07-30T07:27:22;12.47;;;4.60;;
2305;SDS011;1161;51.922;8.896;2023-07-30T07:29:49;8.63;;;4.50;;
2305;SDS011;1161;51.922;8.896;2023-07-30T07:32:17;7.33;;;4.90;;
2305;SDS011;1161;51.922;8.896;2023-07-30T07:34:46;8.43;;;5.07;;
2305;SDS011;1161;51.922;8.896;2023-07-30T07:37:14;9.63;;;6.23;;
2305;SDS011;1161;51.922;8.896;2023-07-30T07:39:41;18.37;;;5.93;;
2305;SDS011;1161;51.922;8.896;2023-07-30T07:42:08;15.10;;;4.80;;
2305;SDS011;1161;51.922;8.896;2023-07-30T07:44:35;7.97;;;5.07;;
2305;SDS011;1161;51.922;8.896;2023-07-30T07:47:02;13.90;;;6.20;;
2305;SDS011;1161;51.922;8.896;2023-07-30T07:49:29;11.93;;;6.30;;
2305;SDS011;1161;51.922;8.896;2023-07-30T07:51:57;16.40;;;6.47;;
2305;SDS011;1161;51.922;8.896;2023-07-30T07:54:24;12.33;;;5.77;;
2305;SDS011;1161;51.922;8.896;2023-07-30T07:56:51;18.63;;;6.57;;
2305;SDS011;1161;51.922;8.896;2023-07-30T07:59:17;19.97;;;7.30;;
2305;SDS011;1161;51.922;8.896;2023-07-30T08:01:44;14.40;;;7.60;;
2305;SDS011;1161;51.922;8.896;2023-07-30T08:04:11;10.57;;;6.70;;
2305;SDS011;1161;51.922;8.896;2023-07-30T08:06:38;14.10;;;7.07;;
2305;SDS011;1161;51.922;8.896;2023-07-30T08:09:06;12.27;;;6.27;;
2305;SDS011;1161;51.922;8.896;2023-07-30T08:11:33;17.70;;;7.30;;
2305;SDS011;1161;51.922;8.896;2023-07-30T08:14:00;21.33;;;9.10;;
2305;SDS011;1161;51.922;8.896;2023-07-30T08:16:28;10.20;;;7.20;;
2305;SDS011;1161;51.922;8.896;2023-07-30T08:18:54;18.43;;;8.50;;
2305;SDS011;1161;51.922;8.896;2023-07-30T08:21:21;10.03;;;7.70;;
2305;SDS011;1161;51.922;8.896;2023-07-30T08:23:48;17.53;;;9.10;;
2305;SDS011;1161;51.922;8.896;2023-07-30T08:26:16;20.00;;;8.20;;
2305;SDS011;1161;51.922;8.896;2023-07-30T08:28:43;13.77;;;7.83;;
2305;SDS011;1161;51.922;8.896;2023-07-30T08:31:09;17.57;;;9.53;;
2305;SDS011;1161;51.922;8.896;2023-07-30T08:33:37;25.57;;;11.17;;
2305;SDS011;1161;51.922;8.896;2023-07-30T08:36:04;18.57;;;10.47;;
2305;SDS011;1161;51.922;8.896;2023-07-30T08:38:30;17.40;;;9.30;;
2305;SDS011;1161;51.922;8.896;2023-07-30T08:40:57;21.67;;;11.57;;
2305;SDS011;1161;51.922;8.896;2023-07-30T08:43:25;25.57;;;10.57;;
2305;SDS011;1161;51.922;8.896;2023-07-30T08:45:52;16.77;;;10.27;;
2305;SDS011;1161;51.922;8.896;2023-07-30T08:48:19;22.93;;;12.10;;
2305;SDS011;1161;51.922;8.896;2023-07-30T08:50:46;29.77;;;13.27;;
2305;SDS011;1161;51.922;8.896;2023-07-30T08:53:15;26.37;;;13.30;;
2305;SDS011;1161;51.922;8.896;2023-07-30T08:55:42;28.27;;;10.90;;
2305;SDS011;1161;51.922;8.896;2023-07-30T08:58:09;25.57;;;12.00;;
2305;SDS011;1161;51.922;8.896;2023-07-30T09:00:39;22.80;;;10.90;;
2305;SDS011;1161;51.922;8.896;2023-07-30T09:03:07;18.87;;;12.13;;
2305;SDS011;1161;51.922;8.896;2023-07-30T09:05:34;31.40;;;11.43;;
2305;SDS011;1161;51.922;8.896;2023-07-30T09:08:01;25.83;;;10.17;;
2305;SDS011;1161;51.922;8.896;2023-07-30T09:10:28;28.40;;;15.13;;
2305;SDS011;1161;51.922;8.896;2023-07-30T09:12:55;27.40;;;11.40;;
2305;SDS011;1161;51.922;8.896;2023-07-30T09:15:30;16.03;;;10.00;;
2305;SDS011;1161;51.922;8.896;2023-07-30T09:17:59;38.20;;;14.00;;
2305;SDS011;1161;51.922;8.896;2023-07-30T09:20:26;18.70;;;12.00;;
2305;SDS011;1161;51.922;8.896;2023-07-30T09:22:55;27.47;;;11.97;;
2305;SDS011;1161;51.922;8.896;2023-07-30T09:25:22;23.50;;;10.20;;
2305;SDS011;1161;51.922;8.896;2023-07-30T09:27:49;41.50;;;12.97;;
2305;SDS011;1161;51.922;8.896;2023-07-30T09:30:21;20.27;;;10.20;;
2305;SDS011;1161;51.922;8.896;2023-07-30T09:32:50;28.63;;;12.17;;
2305;SDS011;1161;51.922;8.896;2023-07-30T09:35:20;34.47;;;10.10;;
2305;SDS011;1161;51.922;8.896;2023-07-30T09:37:50;29.10;;;10.73;;
2305;SDS011;1161;51.922;8.896;2023-07-30T09:40:17;16.10;;;9.40;;
2305;SDS011;1161;51.922;8.896;2023-07-30T09:42:45;16.97;;;9.30;;
2305;SDS011;1161;51.922;8.896;2023-07-30T09:45:16;14.93;;;8.70;;
2305;SDS011;1161;51.922;8.896;2023-07-30T09:47:45;11.93;;;5.53;;
2305;SDS011;1161;51.922;8.896;2023-07-30T09:50:13;17.30;;;6.10;;
2305;SDS011;1161;51.922;8.896;2023-07-30T09:52:42;15.80;;;8.37;;
2305;SDS011;1161;51.922;8.896;2023-07-30T09:55:09;20.93;;;6.90;;
2305;SDS011;1161;51.922;8.896;2023-07-30T09:57:36;12.30;;;7.80;;
2305;SDS011;1161;51.922;8.896;2023-07-30T10:00:04;12.60;;;7.30;;
2305;SDS011;1161;51.922;8.896;2023-07-30T10:05:03;25.80;;;10.80;;
2305;SDS011;1161;51.922;8.896;2023-07-30T10:07:34;20.30;;;11.20;;
2305;SDS011;1161;51.922;8.896;2023-07-30T10:10:03;19.77;;;10.43;;
2305;SDS011;1161;51.922;8.896;2023-07-30T10:12:32;22.10;;;10.83;;
2305;SDS011;1161;51.922;8.896;2023-07-30T10:15:00;30.90;;;11.60;;
2305;SDS011;1161;51.922;8.896;2023-07-30T10:17:27;27.73;;;10.87;;
2305;SDS011;1161;51.922;8.896;2023-07-30T10:19:54;22.30;;;10.57;;
2305;SDS011;1161;51.922;8.896;2023-07-30T10:22:22;25.83;;;10.17;;
2305;SDS011;1161;51.922;8.896;2023-07-30T10:24:57;18.83;;;8.80;;
2305;SDS011;1161;51.922;8.896;2023-07-30T10:27:26;18.37;;;9.73;;
2305;SDS011;1161;51.922;8.896;2023-07-30T10:30:08;25.40;;;10.30;;
2305;SDS011;1161;51.922;8.896;2023-07-30T10:32:39;18.40;;;8.57;;
2305;SDS011;1161;51.922;8.896;2023-07-30T10:35:07;23.73;;;9.20;;
2305;SDS011;1161;51.922;8.896;2023-07-30T10:37:34;19.53;;;9.80;;
2305;SDS011;1161;51.922;8.896;2023-07-30T10:40:02;22.53;;;11.80;;
2305;SDS011;1161;51.922;8.896;2023-07-30T10:42:44;21.83;;;10.63;;
2305;SDS011;1161;51.922;8.896;2023-07-30T10:45:10;33.90;;;13.23;;
2305;SDS011;1161;51.922;8.896;2023-07-30T10:47:37;36.50;;;14.90;;
2305;SDS011;1161;51.922;8.896;2023-07-30T10:50:04;25.63;;;12.50;;
2305;SDS011;1161;51.922;8.896;2023-07-30T10:52:32;22.40;;;11.87;;
2305;SDS011;1161;51.922;8.896;2023-07-30T10:54:59;23.07;;;10.30;;
2305;SDS011;1161;51.922;8.896;2023-07-30T10:57:29;22.80;;;12.40;;
2305;SDS011;1161;51.922;8.896;2023-07-30T10:59:57;20.10;;;9.73;;
2305;SDS011;1161;51.922;8.896;2023-07-30T11:02:25;25.07;;;11.73;;
2305;SDS011;1161;51.922;8.896;2023-07-30T11:04:52;26.03;;;11.13;;
2305;SDS011;1161;51.922;8.896;2023-07-30T11:07:19;25.77;;;9.97;;
2305;SDS011;1161;51.922;8.896;2023-07-30T11:09:46;30.43;;;10.57;;
2305;SDS011;1161;51.922;8.896;2023-07-30T11:12:25;21.70;;;11.30;;
2305;SDS011;1161;51.922;8.896;2023-07-30T11:15:00;21.17;;;10.60;;
2305;SDS011;1161;51.922;8.896;2023-07-30T11:17:28;23.27;;;10.20;;
2305;SDS011;1161;51.922;8.896;2023-07-30T11:19:55;31.03;;;10.60;;
2305;SDS011;1161;51.922;8.896;2023-07-30T11:22:28;21.83;;;9.83;;
2305;SDS011;1161;51.922;8.896;2023-07-30T11:24:56;27.23;;;9.40;;
2305;SDS011;1161;51.922;8.896;2023-07-30T11:27:23;22.83;;;11.10;;
2305;SDS011;1161;51.922;8.896;2023-07-30T11:29:53;22.17;;;11.07;;
2305;SDS011;1161;51.922;8.896;2023-07-30T11:32:22;23.33;;;10.40;;
2305;SDS011;1161;51.922;8.896;2023-07-30T11:34:51;10.37;;;7.33;;
2305;SDS011;1161;51.922;8.896;2023-07-30T11:37:18;15.20;;;8.33;;
2305;SDS011;1161;51.922;8.896;2023-07-30T11:39:45;13.53;;;7.60;;
2305;SDS011;1161;51.922;8.896;2023-07-30T11:42:12;14.30;;;8.07;;
2305;SDS011;1161;51.922;8.896;2023-07-30T11:44:39;23.67;;;7.23;;
2305;SDS011;1161;51.922;8.896;2023-07-30T11:47:06;15.20;;;7.97;;
2305;SDS011;1161;51.922;8.896;2023-07-30T11:49:35;14.13;;;7.60;;
2305;SDS011;1161;51.922;8.896;2023-07-30T11:52:06;11.00;;;8.40;;
2305;SDS011;1161;51.922;8.896;2023-07-30T11:54:33;9.93;;;7.27;;
2305;SDS011;1161;51.922;8.896;2023-07-30T11:57:00;11.87;;;7.10;;
2305;SDS011;1161;51.922;8.896;2023-07-30T11:59:27;18.23;;;7.80;;
2305;SDS011;1161;51.922;8.896;2023-07-30T12:01:54;13.33;;;6.70;;
2305;SDS011;1161;51.922;8.896;2023-07-30T12:04:21;23.27;;;6.77;;
2305;SDS011;1161;51.922;8.896;2023-07-30T12:06:51;9.73;;;5.90;;
2305;SDS011;1161;51.922;8.896;2023-07-30T12:09:19;15.10;;;6.90;;
2305;SDS011;1161;51.922;8.896;2023-07-30T12:11:48;15.13;;;7.57;;
2305;SDS011;1161;51.922;8.896;2023-07-30T12:14:17;19.07;;;6.80;;
2305;SDS011;1161;51.922;8.896;2023-07-30T12:16:45;10.67;;;5.70;;
2305;SDS011;1161;51.922;8.896;2023-07-30T12:19:11;20.50;;;5.70;;
2305;SDS011;1161;51.922;8.896;2023-07-30T12:21:38;10.20;;;4.70;;
2305;SDS011;1161;51.922;8.896;2023-07-30T12:24:07;13.47;;;4.00;;
2305;SDS011;1161;51.922;8.896;2023-07-30T12:26:34;9.07;;;5.40;;
2305;SDS011;1161;51.922;8.896;2023-07-30T12:29:01;15.73;;;5.43;;
2305;SDS011;1161;51.922;8.896;2023-07-30T12:31:28;11.63;;;4.90;;
2305;SDS011;1161;51.922;8.896;2023-07-30T12:33:55;13.70;;;4.30;;
2305;SDS011;1161;51.922;8.896;2023-07-30T12:36:22;5.90;;;3.33;;
2305;SDS011;1161;51.922;8.896;2023-07-30T12:38:48;9.00;;;4.40;;
2305;SDS011;1161;51.922;8.896;2023-07-30T12:41:19;10.27;;;4.17;;
2305;SDS011;1161;51.922;8.896;2023-07-30T12:43:51;9.47;;;5.87;;
2305;SDS011;1161;51.922;8.896;2023-07-30T12:46:17;6.17;;;4.00;;
2305;SDS011;1161;51.922;8.896;2023-07-30T12:48:44;9.33;;;3.77;;
2305;SDS011;1161;51.922;8.896;2023-07-30T12:51:11;7.17;;;4.30;;
2305;SDS011;1161;51.922;8.896;2023-07-30T12:53:38;4.00;;;3.70;;
2305;SDS011;1161;51.922;8.896;2023-07-30T12:56:05;9.63;;;5.83;;
2305;SDS011;1161;51.922;8.896;2023-07-30T12:58:33;7.70;;;4.67;;
2305;SDS011;1161;51.922;8.896;2023-07-30T13:01:00;8.27;;;3.60;;
2305;SDS011;1161;51.922;8.896;2023-07-30T13:03:27;5.93;;;4.77;;
2305;SDS011;1161;51.922;8.896;2023-07-30T13:05:54;9.00;;;4.57;;
2305;SDS011;1161;51.922;8.896;2023-07-30T13:08:21;5.00;;;3.40;;
2305;SDS011;1161;51.922;8.896;2023-07-30T13:10:47;12.50;;;3.40;;
2305;SDS011;1161;51.922;8.896;2023-07-30T13:13:14;13.60;;;4.90;;
2305;SDS011;1161;51.922;8.896;2023-07-30T13:15:42;7.63;;;3.30;;
2305;SDS011;1161;51.922;8.896;2023-07-30T13:18:09;7.50;;;3.73;;
2305;SDS011;1161;51.922;8.896;2023-07-30T13:20:36;6.43;;;3.07;;
2305;SDS011;1161;51.922;8.896;2023-07-30T13:23:03;7.50;;;3.10;;
2305;SDS011;1161;51.922;8.896;2023-07-30T13:25:29;6.13;;;3.20;;
2305;SDS011;1161;51.922;8.896;2023-07-30T13:27:56;10.53;;;3.30;;
2305;SDS011;1161;51.922;8.896;2023-07-30T13:30:23;5.07;;;3.50;;
2305;SDS011;1161;51.922;8.896;2023-07-30T13:32:51;4.47;;;2.90;;
2305;SDS011;1161;51.922;8.896;2023-07-30T13:35:18;9.33;;;3.83;;
2305;SDS011;1161;51.922;8.896;2023-07-30T13:37:44;11.57;;;3.33;;
2305;SDS011;1161;51.922;8.896;2023-07-30T13:40:11;4.90;;;3.87;;
2305;SDS011;1161;51.922;8.896;2023-07-30T13:42:38;8.43;;;3.27;;
2305;SDS011;1161;51.922;8.896;2023-07-30T13:45:05;6.60;;;3.90;;
2305;SDS011;1161;51.922;8.896;2023-07-30T13:47:32;14.50;;;3.37;;
2305;SDS011;1161;51.922;8.896;2023-07-30T13:50:01;11.30;;;3.70;;
2305;SDS011;1161;51.922;8.896;2023-07-30T13:52:28;8.77;;;2.73;;
2305;SDS011;1161;51.922;8.896;2023-07-30T13:54:55;4.30;;;2.83;;
2305;SDS011;1161;51.922;8.896;2023-07-30T13:57:21;11.77;;;2.87;;
2305;SDS011;1161;51.922;8.896;2023-07-30T13:59:49;5.53;;;3.60;;
2305;SDS011;1161;51.922;8.896;2023-07-30T14:02:16;6.07;;;3.00;;
2305;SDS011;1161;51.922;8.896;2023-07-30T14:04:43;6.83;;;3.00;;
2305;SDS011;1161;51.922;8.896;2023-07-30T14:07:11;7.50;;;4.50;;
2305;SDS011;1161;51.922;8.896;2023-07-30T14:09:38;17.93;;;3.30;;
2305;SDS011;1161;51.922;8.896;2023-07-30T14:12:06;5.33;;;3.77;;
2305;SDS011;1161;51.922;8.896;2023-07-30T14:14:33;10.13;;;4.80;;
2305;SDS011;1161;51.922;8.896;2023-07-30T14:17:00;9.60;;;4.70;;
2305;SDS011;1161;51.922;8.896;2023-07-30T14:19:32;6.27;;;4.47;;
2305;SDS011;1161;51.922;8.896;2023-07-30T14:21:59;8.07;;;5.23;;
2305;SDS011;1161;51.922;8.896;2023-07-30T14:24:27;4.07;;;3.77;;
2305;SDS011;1161;51.922;8.896;2023-07-30T14:26:54;4.73;;;3.00;;
2305;SDS011;1161;51.922;8.896;2023-07-30T14:29:21;4.10;;;3.30;;
2305;SDS011;1161;51.922;8.896;2023-07-30T14:31:47;2.90;;;2.20;;
2305;SDS011;1161;51.922;8.896;2023-07-30T14:34:14;7.73;;;3.60;;
2305;SDS011;1161;51.922;8.896;2023-07-30T14:36:41;4.97;;;3.80;;
2305;SDS011;1161;51.922;8.896;2023-07-30T14:39:08;4.73;;;2.80;;
2305;SDS011;1161;51.922;8.896;2023-07-30T14:41:37;6.80;;;2.90;;
2305;SDS011;1161;51.922;8.896;2023-07-30T14:44:04;3.60;;;3.30;;
2305;SDS011;1161;51.922;8.896;2023-07-30T14:46:32;12.63;;;3.53;;
2305;SDS011;1161;51.922;8.896;2023-07-30T14:48:59;5.40;;;3.50;;
2305;SDS011;1161;51.922;8.896;2023-07-30T14:51:25;3.00;;;2.80;;
2305;SDS011;1161;51.922;8.896;2023-07-30T14:53:52;5.87;;;3.97;;
2305;SDS011;1161;51.922;8.896;2023-07-30T14:56:19;4.80;;;3.80;;
2305;SDS011;1161;51.922;8.896;2023-07-30T14:58:47;5.90;;;3.60;;
2305;SDS011;1161;51.922;8.896;2023-07-30T15:01:14;3.10;;;3.00;;
2305;SDS011;1161;51.922;8.896;2023-07-30T15:03:41;13.83;;;4.87;;
2305;SDS011;1161;51.922;8.896;2023-07-30T15:06:08;6.13;;;2.83;;
2305;SDS011;1161;51.922;8.896;2023-07-30T15:08:34;5.67;;;3.77;;